Time;durP1;ratioP1;P1;durP2;ratioP2;P2;SDS_P1;SDS_P2;PMS_P1;PMS_P2;Temp;Humidity;BMP_temperature;BMP_pressure;BME280_temperature;BME280_humidity;BME280_pressure;Samples;Min_cycle;Max_cycle;Signal;HPM_P1;HPM_P2
2021/05/28 00:02:23;;;;;;;1.58;0.88;;;;;;;;;;5054238;28;20044;-76
2021/05/28 00:04:50;;;;;;;1.42;0.70;;;;;;;;;;5054146;28;20054;-77
2021/05/28 00:07:16;;;;;;;2.30;0.90;;;;;;;;;;5054220;28;20086;-77
2021/05/28 00:09:42;;;;;;;1.80;1.00;;;;;;;;;;5052891;28;20025;-77
2021/05/28 00:12:09;;;;;;;2.83;1.00;;;;;;;;;;5054021;28;20021;-76
2021/05/28 00:14:35;;;;;;;4.03;1.17;;;;;;;;;;5054111;28;20039;-77
2021/05/28 00:17:02;;;;;;;1.55;0.88;;;;;;;;;;5054048;28;20017;-79
2021/05/28 00:19:28;;;;;;;3.80;0.90;;;;;;;;;;5053910;28;20024;-76
2021/05/28 00:21:54;;;;;;;1.98;0.90;;;;;;;;;;5054618;28;20071;-77
2021/05/28 00:24:20;;;;;;;2.03;0.88;;;;;;;;;;5052645;28;20033;-77
2021/05/28 00:26:47;;;;;;;5.38;0.85;;;;;;;;;;5053785;28;20033;-77
2021/05/28 00:29:13;;;;;;;1.70;0.80;;;;;;;;;;5053844;28;20025;-77
2021/05/28 00:31:40;;;;;;;2.95;0.85;;;;;;;;;;5053728;28;20029;-77
2021/05/28 00:34:06;;;;;;;1.65;0.80;;;;;;;;;;5053027;28;20028;-75
2021/05/28 00:36:32;;;;;;;2.15;0.90;;;;;;;;;;5052947;28;20029;-75
2021/05/28 00:38:58;;;;;;;1.80;0.80;;;;;;;;;;5052444;28;20028;-74
2021/05/28 00:41:24;;;;;;;2.40;1.00;;;;;;;;;;5054212;28;20025;-75
2021/05/28 00:43:51;;;;;;;1.58;0.80;;;;;;;;;;5052463;28;20466;-74
2021/05/28 00:46:17;;;;;;;4.20;0.73;;;;;;;;;;5052192;28;20059;-76
2021/05/28 00:48:43;;;;;;;3.05;0.85;;;;;;;;;;5052054;28;20056;-77
2021/05/28 00:51:10;;;;;;;3.45;1.02;;;;;;;;;;5052365;28;20025;-77
2021/05/28 00:53:36;;;;;;;4.30;1.00;;;;;;;;;;5054221;28;20029;-77
2021/05/28 00:56:02;;;;;;;2.60;0.90;;;;;;;;;;5052299;28;20033;-76
2021/05/28 00:58:29;;;;;;;4.30;1.00;;;;;;;;;;5052443;28;20462;-77
2021/05/28 01:00:55;;;;;;;2.35;1.00;;;;;;;;;;5053270;28;20426;-77
2021/05/28 01:03:21;;;;;;;2.83;1.08;;;;;;;;;;5053330;28;20021;-77
2021/05/28 01:05:47;;;;;;;3.88;1.20;;;;;;;;;;5053682;28;20046;-76
2021/05/28 01:08:14;;;;;;;1.77;0.90;;;;;;;;;;5052756;28;20027;-76
2021/05/28 01:10:40;;;;;;;1.40;0.70;;;;;;;;;;5051984;28;20025;-77
2021/05/28 01:13:07;;;;;;;1.50;0.80;;;;;;;;;;5051889;28;20553;-77
2021/05/28 01:15:34;;;;;;;2.42;0.88;;;;;;;;;;5051982;28;20032;-78
2021/05/28 01:18:00;;;;;;;2.67;1.10;;;;;;;;;;5051872;28;20026;-78
2021/05/28 01:20:26;;;;;;;2.05;0.90;;;;;;;;;;5052127;28;20119;-77
2021/05/28 01:22:53;;;;;;;2.00;1.05;;;;;;;;;;5053112;28;20425;-77
2021/05/28 01:25:20;;;;;;;3.55;1.33;;;;;;;;;;5051730;28;20025;-78
2021/05/28 01:27:47;;;;;;;2.35;1.25;;;;;;;;;;5051756;28;20530;-77
2021/05/28 01:30:14;;;;;;;2.55;1.00;;;;;;;;;;5053146;28;20021;-77
2021/05/28 01:32:41;;;;;;;2.15;1.08;;;;;;;;;;5052081;28;20069;-77
2021/05/28 01:35:08;;;;;;;4.95;1.40;;;;;;;;;;5051803;28;20029;-77
2021/05/28 01:37:34;;;;;;;2.42;1.05;;;;;;;;;;5051665;28;20500;-76
2021/05/28 01:40:00;;;;;;;3.03;0.88;;;;;;;;;;5054797;28;20032;-77
2021/05/28 01:42:26;;;;;;;2.78;0.98;;;;;;;;;;5057524;28;20032;-77
2021/05/28 01:44:53;;;;;;;2.13;1.00;;;;;;;;;;5055621;28;20049;-75
2021/05/28 01:47:20;;;;;;;1.75;0.70;;;;;;;;;;5055655;28;20021;-76
2021/05/28 01:49:46;;;;;;;2.92;1.05;;;;;;;;;;5055480;28;20060;-75
2021/05/28 01:52:13;;;;;;;1.63;0.90;;;;;;;;;;5055570;28;20033;-76
2021/05/28 01:54:40;;;;;;;1.50;0.77;;;;;;;;;;5056814;28;20079;-76
2021/05/28 01:57:07;;;;;;;1.55;0.90;;;;;;;;;;5055409;28;20082;-76
2021/05/28 01:59:33;;;;;;;3.55;1.25;;;;;;;;;;5057256;28;20029;-77
2021/05/28 02:01:59;;;;;;;2.65;0.80;;;;;;;;;;5057096;28;20100;-78
2021/05/28 02:04:26;;;;;;;1.63;0.77;;;;;;;;;;5055135;28;20064;-77
2021/05/28 02:06:52;;;;;;;2.42;1.02;;;;;;;;;;5055203;28;20029;-77
2021/05/28 02:09:19;;;;;;;1.40;0.70;;;;;;;;;;5055228;28;20029;-77
2021/05/28 02:11:45;;;;;;;2.58;1.05;;;;;;;;;;5056985;28;20584;-77
2021/05/28 02:14:11;;;;;;;1.63;0.93;;;;;;;;;;5056429;28;20028;-75
2021/05/28 02:16:38;;;;;;;1.58;0.70;;;;;;;;;;5055134;28;20024;-78
2021/05/28 02:19:07;;;;;;;2.40;1.00;;;;;;;;;;5056218;28;20036;-78
2021/05/28 02:21:34;;;;;;;2.30;1.20;;;;;;;;;;5055040;28;20040;-77
2021/05/28 02:24:01;;;;;;;1.67;0.80;;;;;;;;;;5056503;28;20024;-77
2021/05/28 02:26:27;;;;;;;1.48;0.68;;;;;;;;;;5056306;28;20443;-77
2021/05/28 02:28:53;;;;;;;2.25;1.00;;;;;;;;;;5056275;28;20021;-75
2021/05/28 02:31:19;;;;;;;1.67;0.90;;;;;;;;;;5054796;28;20112;-77
2021/05/28 02:33:45;;;;;;;2.15;1.02;;;;;;;;;;5056015;28;20040;-77
2021/05/28 02:36:12;;;;;;;2.17;0.90;;;;;;;;;;5054730;28;20031;-77
2021/05/28 02:38:38;;;;;;;3.65;0.90;;;;;;;;;;5056574;28;20029;-77
2021/05/28 02:41:05;;;;;;;1.40;0.75;;;;;;;;;;5054659;28;20029;-77
2021/05/28 02:43:31;;;;;;;1.10;0.60;;;;;;;;;;5056414;28;20029;-78
2021/05/28 02:45:58;;;;;;;2.25;1.00;;;;;;;;;;5056074;28;20067;-78
2021/05/28 02:48:24;;;;;;;1.98;0.90;;;;;;;;;;5055753;28;20029;-79
2021/05/28 02:50:51;;;;;;;3.67;0.90;;;;;;;;;;5054271;28;20497;-78
2021/05/28 02:53:17;;;;;;;1.60;0.80;;;;;;;;;;5055654;28;20029;-77
2021/05/28 02:55:44;;;;;;;2.72;0.77;;;;;;;;;;5055541;28;20389;-77
2021/05/28 02:58:10;;;;;;;2.90;0.95;;;;;;;;;;5056068;28;20021;-77
2021/05/28 03:00:36;;;;;;;3.15;0.70;;;;;;;;;;5055986;28;20021;-76
2021/05/28 03:03:03;;;;;;;1.85;0.90;;;;;;;;;;5054158;28;20021;-77
2021/05/28 03:05:29;;;;;;;1.70;0.77;;;;;;;;;;5055883;28;20039;-77
2021/05/28 03:07:55;;;;;;;1.83;0.70;;;;;;;;;;5054033;28;20025;-77
2021/05/28 03:10:22;;;;;;;1.83;0.80;;;;;;;;;;5055360;28;20037;-77
2021/05/28 03:12:49;;;;;;;1.88;0.80;;;;;;;;;;5054043;28;20032;-77
2021/05/28 03:15:15;;;;;;;1.33;0.70;;;;;;;;;;5055212;28;20029;-78
2021/05/28 03:17:44;;;;;;;2.55;0.98;;;;;;;;;;5055177;28;20025;-78
2021/05/28 03:20:24;;;;;;;2.35;0.95;;;;;;;;;;5053768;28;20025;-78
2021/05/28 03:22:50;;;;;;;1.48;0.77;;;;;;;;;;5053965;28;20028;-78
2021/05/28 03:25:17;;;;;;;1.40;0.80;;;;;;;;;;5053633;28;20090;-82
2021/05/28 03:27:47;;;;;;;1.73;0.73;;;;;;;;;;5053724;28;20119;-77
2021/05/28 03:30:14;;;;;;;1.40;0.60;;;;;;;;;;5053963;28;20029;-77
2021/05/28 03:32:40;;;;;;;1.63;0.80;;;;;;;;;;5055447;28;20036;-77
2021/05/28 03:35:07;;;;;;;2.28;0.90;;;;;;;;;;5054866;28;20021;-78
2021/05/28 03:37:34;;;;;;;1.50;0.88;;;;;;;;;;5054849;28;20494;-77
2021/05/28 03:40:01;;;;;;;2.55;0.80;;;;;;;;;;5053776;28;20029;-77
2021/05/28 03:42:27;;;;;;;1.80;0.70;;;;;;;;;;5054748;28;20051;-77
2021/05/28 03:44:54;;;;;;;1.55;0.85;;;;;;;;;;5055182;28;20528;-77
2021/05/28 03:47:21;;;;;;;3.70;1.05;;;;;;;;;;5055160;28;20414;-77
2021/05/28 03:49:47;;;;;;;3.47;0.88;;;;;;;;;;5052976;28;20049;-78
2021/05/28 03:52:13;;;;;;;1.70;0.90;;;;;;;;;;5053313;28;20496;-77
2021/05/28 03:54:40;;;;;;;3.88;0.95;;;;;;;;;;5053238;28;20033;-79
2021/05/28 03:57:07;;;;;;;1.20;0.60;;;;;;;;;;5054318;28;20025;-77
2021/05/28 03:59:33;;;;;;;3.55;1.02;;;;;;;;;;5054464;28;20021;-77
2021/05/28 04:02:00;;;;;;;1.70;0.70;;;;;;;;;;5054043;28;20020;-77
2021/05/28 04:04:26;;;;;;;2.13;0.93;;;;;;;;;;5054432;28;20028;-77
2021/05/28 04:06:53;;;;;;;1.63;0.60;;;;;;;;;;5055394;28;20059;-77
2021/05/28 04:09:19;;;;;;;1.35;0.60;;;;;;;;;;5054568;28;20056;-77
2021/05/28 04:11:45;;;;;;;2.63;0.50;;;;;;;;;;5054758;28;20124;-78
2021/05/28 04:14:14;;;;;;;1.17;0.60;;;;;;;;;;5054616;28;20377;-78
2021/05/28 04:16:40;;;;;;;4.32;0.82;;;;;;;;;;5054118;28;20024;-78
2021/05/28 04:19:07;;;;;;;4.78;0.70;;;;;;;;;;5052771;28;20392;-78
2021/05/28 04:21:33;;;;;;;1.13;0.50;;;;;;;;;;5054046;28;20025;-79
2021/05/28 04:24:00;;;;;;;1.90;0.57;;;;;;;;;;5052647;28;20063;-80
2021/05/28 04:26:27;;;;;;;6.00;0.82;;;;;;;;;;5054413;28;20037;-77
2021/05/28 04:28:53;;;;;;;1.55;0.52;;;;;;;;;;5053929;28;20106;-77
2021/05/28 04:31:20;;;;;;;1.75;0.52;;;;;;;;;;5054006;28;20082;-77
2021/05/28 04:33:46;;;;;;;1.45;0.50;;;;;;;;;;5054571;28;20055;-77
2021/05/28 04:36:12;;;;;;;1.98;0.55;;;;;;;;;;5052503;28;20041;-77
2021/05/28 04:38:39;;;;;;;1.55;0.63;;;;;;;;;;5052658;28;20029;-77
2021/05/28 04:41:05;;;;;;;2.28;0.60;;;;;;;;;;5052697;28;20033;-77
2021/05/28 04:43:31;;;;;;;1.23;0.38;;;;;;;;;;5052334;28;20436;-77
2021/05/28 04:45:58;;;;;;;3.10;0.60;;;;;;;;;;5052278;28;20056;-77
2021/05/28 04:48:24;;;;;;;4.70;0.60;;;;;;;;;;5052255;28;20453;-78
2021/05/28 04:50:50;;;;;;;2.42;0.57;;;;;;;;;;5052590;28;20128;-78
2021/05/28 04:53:16;;;;;;;1.30;0.40;;;;;;;;;;5052764;28;20056;-77
2021/05/28 04:55:43;;;;;;;4.25;0.60;;;;;;;;;;5052700;28;20470;-79
2021/05/28 04:58:10;;;;;;;2.58;0.50;;;;;;;;;;5051410;28;20024;-78
2021/05/28 05:00:38;;;;;;;2.10;0.50;;;;;;;;;;5051289;28;20474;-78
2021/05/28 05:03:04;;;;;;;2.83;0.60;;;;;;;;;;5051295;28;20025;-78
2021/05/28 05:05:31;;;;;;;2.60;0.52;;;;;;;;;;5051382;28;20163;-87
2021/05/28 05:07:57;;;;;;;1.17;0.50;;;;;;;;;;5050718;28;20078;-83
2021/05/28 05:10:23;;;;;;;1.88;0.60;;;;;;;;;;5051440;28;20434;-79
2021/05/28 05:12:49;;;;;;;4.88;0.68;;;;;;;;;;5051990;28;20025;-78
2021/05/28 05:15:16;;;;;;;1.80;0.43;;;;;;;;;;5050838;28;20040;-79
2021/05/28 05:17:42;;;;;;;1.10;0.60;;;;;;;;;;5052704;28;20071;-78
2021/05/28 05:20:09;;;;;;;1.30;0.43;;;;;;;;;;5050797;28;20028;-78
2021/05/28 05:22:36;;;;;;;1.92;0.60;;;;;;;;;;5051175;28;20528;-78
2021/05/28 05:25:02;;;;;;;3.88;0.70;;;;;;;;;;5051128;28;20025;-79
2021/05/28 05:27:28;;;;;;;1.88;0.45;;;;;;;;;;5051221;28;20033;-78
2021/05/28 05:29:54;;;;;;;1.95;0.50;;;;;;;;;;5051223;28;20021;-77
2021/05/28 05:32:20;;;;;;;1.27;0.57;;;;;;;;;;5050799;28;20056;-79
2021/05/28 05:34:46;;;;;;;2.60;0.82;;;;;;;;;;5051266;28;20130;-83
2021/05/28 05:37:13;;;;;;;2.45;1.40;;;;;;;;;;5052133;28;20474;-77
2021/05/28 05:39:39;;;;;;;1.17;0.50;;;;;;;;;;5051524;28;20032;-78
2021/05/28 05:42:05;;;;;;;2.58;0.43;;;;;;;;;;5052314;28;20036;-84
2021/05/28 05:44:31;;;;;;;1.58;0.60;;;;;;;;;;5050960;28;20028;-81
2021/05/28 05:46:57;;;;;;;0.85;0.40;;;;;;;;;;5052001;28;20116;-82
2021/05/28 05:49:24;;;;;;;2.50;0.52;;;;;;;;;;5005289;28;1346600;-84
2021/05/28 05:51:50;;;;;;;1.92;0.40;;;;;;;;;;5051608;28;20033;-81
2021/05/28 05:54:16;;;;;;;1.38;0.50;;;;;;;;;;5052607;28;20055;-81
2021/05/28 05:56:42;;;;;;;2.95;0.47;;;;;;;;;;5051954;28;20067;-80
2021/05/28 05:59:08;;;;;;;2.20;0.47;;;;;;;;;;5052245;28;20029;-89
2021/05/28 06:01:34;;;;;;;1.33;0.55;;;;;;;;;;5052193;28;20025;-87
2021/05/28 06:04:02;;;;;;;1.10;0.50;;;;;;;;;;5052645;28;20032;-85
2021/05/28 06:06:28;;;;;;;1.27;0.50;;;;;;;;;;5052295;28;20439;-87
2021/05/28 06:08:54;;;;;;;2.35;0.70;;;;;;;;;;5054255;28;20096;-85
2021/05/28 06:11:21;;;;;;;3.17;0.60;;;;;;;;;;5053955;28;20059;-80
2021/05/28 06:13:47;;;;;;;1.25;0.68;;;;;;;;;;5051663;28;20029;-78
2021/05/28 06:16:13;;;;;;;2.08;0.50;;;;;;;;;;5053142;28;20041;-87
2021/05/28 06:18:39;;;;;;;1.42;0.57;;;;;;;;;;5053742;28;20051;-87
2021/05/28 06:21:08;;;;;;;0.95;0.40;;;;;;;;;;5052883;28;20032;-79
2021/05/28 06:23:34;;;;;;;2.22;0.60;;;;;;;;;;5053943;28;20032;-78
2021/05/28 06:26:01;;;;;;;2.17;0.63;;;;;;;;;;5069041;28;20042;-80
2021/05/28 06:28:27;;;;;;;1.33;0.55;;;;;;;;;;5057513;28;20021;-83
2021/05/28 06:30:54;;;;;;;1.05;0.50;;;;;;;;;;5056033;28;20044;-92
2021/05/28 06:33:20;;;;;;;2.30;0.70;;;;;;;;;;5055970;28;20036;-78
2021/05/28 06:35:46;;;;;;;1.85;0.52;;;;;;;;;;5055651;28;20104;-87
2021/05/28 06:38:13;;;;;;;1.85;0.60;;;;;;;;;;5056889;28;20036;-90
2021/05/28 06:40:39;;;;;;;1.10;0.57;;;;;;;;;;5057203;28;20029;-88
2021/05/28 06:43:05;;;;;;;2.85;0.63;;;;;;;;;;5055373;28;20025;-83
2021/05/28 06:45:32;;;;;;;2.42;0.95;;;;;;;;;;5056296;28;20037;-94
2021/05/28 06:47:58;;;;;;;1.50;0.50;;;;;;;;;;5056740;28;20436;-88
2021/05/28 06:50:24;;;;;;;1.02;0.43;;;;;;;;;;5056768;28;20079;-85
2021/05/28 06:52:50;;;;;;;1.60;0.40;;;;;;;;;;5056026;28;20052;-84
2021/05/28 06:55:17;;;;;;;1.38;0.60;;;;;;;;;;5056221;28;20029;-90
2021/05/28 06:57:43;;;;;;;1.25;0.70;;;;;;;;;;5055250;28;20531;-81
2021/05/28 07:00:10;;;;;;;2.40;0.80;;;;;;;;;;5055407;28;20032;-92
2021/05/28 07:02:37;;;;;;;1.20;0.40;;;;;;;;;;5056270;28;20029;-91
2021/05/28 07:05:04;;;;;;;1.10;0.45;;;;;;;;;;5057516;28;20031;-93
2021/05/28 07:07:30;;;;;;;2.55;0.40;;;;;;;;;;5056471;28;20131;-95
2021/05/28 07:09:57;;;;;;;1.45;0.60;;;;;;;;;;5057106;28;20037;-96
2021/05/28 07:12:24;;;;;;;0.50;0.20;;;;;;;;;;5060213;28;20080;-96
2021/05/28 07:15:02;;;;;;;0.80;0.40;;;;;;;;;;5060544;28;20037;-93
2021/05/28 07:17:28;;;;;;;0.57;0.30;;;;;;;;;;5055786;28;20036;-92
2021/05/28 07:19:54;;;;;;;1.35;0.47;;;;;;;;;;5055974;28;20044;-89
2021/05/28 07:22:20;;;;;;;1.35;0.60;;;;;;;;;;5043118;28;20033;-86
2021/05/28 07:24:47;;;;;;;1.13;0.50;;;;;;;;;;5044913;28;20025;-85
2021/05/28 07:27:13;;;;;;;1.92;0.47;;;;;;;;;;5046047;28;20029;-93
2021/05/28 07:29:39;;;;;;;0.90;0.40;;;;;;;;;;5046358;28;20032;-80
2021/05/28 07:32:05;;;;;;;1.08;0.55;;;;;;;;;;5046616;28;20096;-87
2021/05/28 07:34:34;;;;;;;0.90;0.50;;;;;;;;;;5044222;28;20029;-92
2021/05/28 07:37:00;;;;;;;4.75;0.40;;;;;;;;;;5053638;28;20017;-93
2021/05/28 07:39:26;;;;;;;1.10;0.45;;;;;;;;;;5056504;28;20033;-94
2021/05/28 07:41:53;;;;;;;1.27;0.40;;;;;;;;;;5055708;28;20029;-92
2021/05/28 07:44:19;;;;;;;2.58;0.50;;;;;;;;;;5056673;28;20029;-91
2021/05/28 07:46:45;;;;;;;1.05;0.52;;;;;;;;;;5054806;28;20128;-91
2021/05/28 07:49:12;;;;;;;1.33;0.47;;;;;;;;;;5055705;28;20043;-87
2021/05/28 07:51:38;;;;;;;1.52;0.50;;;;;;;;;;5056254;28;20039;-92
2021/05/28 07:54:05;;;;;;;1.08;0.30;;;;;;;;;;5055458;28;20060;-93
2021/05/28 07:56:33;;;;;;;1.60;0.40;;;;;;;;;;5057228;28;20032;-95
2021/05/28 07:58:59;;;;;;;0.88;0.30;;;;;;;;;;5055853;28;20104;-90
2021/05/28 08:01:25;;;;;;;0.73;0.30;;;;;;;;;;5054933;28;20027;-92
2021/05/28 08:03:51;;;;;;;1.00;0.38;;;;;;;;;;5055499;28;20070;-93
2021/05/28 08:06:17;;;;;;;0.80;0.25;;;;;;;;;;5055677;28;20076;-90
2021/05/28 08:08:44;;;;;;;1.50;0.30;;;;;;;;;;5057111;28;20025;-93
2021/05/28 08:11:11;;;;;;;3.53;0.50;;;;;;;;;;5058544;28;20021;-90
2021/05/28 08:13:37;;;;;;;1.55;0.50;;;;;;;;;;5055146;28;20028;-90
2021/05/28 08:16:03;;;;;;;0.50;0.28;;;;;;;;;;5055714;28;20037;-91
2021/05/28 08:18:30;;;;;;;2.13;0.40;;;;;;;;;;5056640;28;20067;-79
2021/05/28 08:20:56;;;;;;;2.35;0.40;;;;;;;;;;5077501;28;20032;-79
2021/05/28 08:23:22;;;;;;;0.88;0.40;;;;;;;;;;5072096;28;20025;-87
2021/05/28 08:25:51;;;;;;;0.57;0.25;;;;;;;;;;5064021;28;20037;-94
2021/05/28 08:28:23;;;;;;;2.80;0.30;;;;;;;;;;5056617;28;20044;-90
2021/05/28 08:30:49;;;;;;;2.03;0.40;;;;;;;;;;5057336;28;20382;-94
2021/05/28 08:33:15;;;;;;;0.70;0.30;;;;;;;;;;5059468;28;20017;-94
2021/05/28 08:35:45;;;;;;;1.02;0.40;;;;;;;;;;5057308;28;20052;-94
2021/05/28 08:38:12;;;;;;;0.68;0.20;;;;;;;;;;5055750;28;20032;-94
2021/05/28 08:40:38;;;;;;;1.90;0.57;;;;;;;;;;5056139;28;20079;-91
2021/05/28 08:43:05;;;;;;;1.00;0.45;;;;;;;;;;5055979;28;20024;-92
2021/05/28 08:45:34;;;;;;;1.30;0.35;;;;;;;;;;5055373;28;20037;-92
2021/05/28 08:48:00;;;;;;;0.88;0.50;;;;;;;;;;5055106;28;20025;-89
2021/05/28 08:50:27;;;;;;;5.32;0.50;;;;;;;;;;5055255;28;20110;-93
2021/05/28 08:52:53;;;;;;;0.98;0.47;;;;;;;;;;5057162;28;20017;-91
2021/05/28 08:55:20;;;;;;;1.50;0.50;;;;;;;;;;5055955;28;20029;-91
2021/05/28 08:57:46;;;;;;;1.90;0.90;;;;;;;;;;5054574;28;20052;-90
2021/05/28 09:00:13;;;;;;;1.58;0.70;;;;;;;;;;5055452;28;20051;-95
2021/05/28 09:02:40;;;;;;;1.60;0.77;;;;;;;;;;5055237;28;20021;-92
2021/05/28 09:05:16;;;;;;;1.77;0.75;;;;;;;;;;5035401;28;20083;-95
2021/05/28 09:07:53;;;;;;;1.75;0.60;;;;;;;;;;5033984;28;20029;-94
2021/05/28 09:10:28;;;;;;;1.23;0.52;;;;;;;;;;5034063;28;20026;-89
2021/05/28 09:13:05;;;;;;;1.30;0.57;;;;;;;;;;5033658;28;20053;-83
2021/05/28 09:15:31;;;;;;;1.85;0.47;;;;;;;;;;5035576;28;20096;-87
2021/05/28 09:17:57;;;;;;;1.60;0.80;;;;;;;;;;5034668;28;20025;-93
2021/05/28 09:20:24;;;;;;;3.75;0.40;;;;;;;;;;5033742;28;20033;-93
2021/05/28 09:23:06;;;;;;;1.33;0.63;;;;;;;;;;5034630;28;20057;-93
2021/05/28 09:25:51;;;;;;;1.23;0.50;;;;;;;;;;5036477;28;20048;-90
2021/05/28 09:28:17;;;;;;;0.90;0.40;;;;;;;;;;5035038;28;20076;-90
2021/05/28 09:30:43;;;;;;;1.23;0.52;;;;;;;;;;5034890;28;20089;-92
2021/05/28 09:33:19;;;;;;;0.90;0.30;;;;;;;;;;5034690;28;20032;-91
2021/05/28 09:35:45;;;;;;;0.80;0.40;;;;;;;;;;5035695;28;20471;-89
2021/05/28 09:38:19;;;;;;;0.68;0.40;;;;;;;;;;5033496;28;20025;-92
2021/05/28 09:40:46;;;;;;;0.77;0.40;;;;;;;;;;5034588;28;20061;-87
2021/05/28 09:43:14;;;;;;;3.20;0.50;;;;;;;;;;5034317;28;20021;-87
2021/05/28 09:45:47;;;;;;;0.90;0.40;;;;;;;;;;5033321;28;20064;-84
2021/05/28 09:48:16;;;;;;;0.73;0.32;;;;;;;;;;5033608;28;20031;-89
2021/05/28 09:50:48;;;;;;;1.65;0.57;;;;;;;;;;5032951;28;20053;-84
2021/05/28 09:53:30;;;;;;;3.03;0.63;;;;;;;;;;5033884;28;20037;-89
2021/05/28 09:55:56;;;;;;;2.30;0.57;;;;;;;;;;5034031;28;20018;-82
2021/05/28 09:58:23;;;;;;;1.08;0.52;;;;;;;;;;5034787;28;20490;-89
2021/05/28 10:00:49;;;;;;;1.30;0.50;;;;;;;;;;5037874;28;20026;-89
2021/05/28 10:03:23;;;;;;;2.10;0.60;;;;;;;;;;5042287;28;20025;-94
2021/05/28 10:05:51;;;;;;;0.93;0.40;;;;;;;;;;5057064;28;20033;-94
2021/05/28 10:08:18;;;;;;;3.92;0.30;;;;;;;;;;5057112;28;20035;-93
2021/05/28 10:10:45;;;;;;;1.00;0.50;;;;;;;;;;5057772;28;20056;-90
2021/05/28 10:13:13;;;;;;;1.13;0.50;;;;;;;;;;5058838;28;20032;-90
2021/05/28 10:15:43;;;;;;;2.70;0.88;;;;;;;;;;5069428;28;20108;-82
2021/05/28 10:18:10;;;;;;;1.30;0.50;;;;;;;;;;5069196;28;20036;-89
2021/05/28 10:20:40;;;;;;;1.00;0.40;;;;;;;;;;5059581;28;20032;-87
2021/05/28 10:23:07;;;;;;;2.75;0.63;;;;;;;;;;5056679;28;20534;-87
2021/05/28 10:25:33;;;;;;;0.82;0.38;;;;;;;;;;5057145;28;20086;-90
2021/05/28 10:28:01;;;;;;;0.60;0.35;;;;;;;;;;5057739;28;20382;-90
2021/05/28 10:30:35;;;;;;;0.90;0.50;;;;;;;;;;5057310;28;20114;-89
2021/05/28 10:33:18;;;;;;;2.78;0.60;;;;;;;;;;5057909;28;20021;-86
2021/05/28 10:35:46;;;;;;;1.25;0.60;;;;;;;;;;5056664;28;20025;-87
2021/05/28 10:38:34;;;;;;;0.90;0.50;;;;;;;;;;5057002;28;20064;-84
2021/05/28 10:41:00;;;;;;;1.42;0.47;;;;;;;;;;5056456;28;20482;-87
2021/05/28 10:43:27;;;;;;;0.90;0.50;;;;;;;;;;5056380;28;20116;-87
2021/05/28 10:45:57;;;;;;;1.00;0.35;;;;;;;;;;5056292;28;20036;-91
2021/05/28 10:48:39;;;;;;;2.08;0.55;;;;;;;;;;5057026;28;20028;-89
2021/05/28 10:51:08;;;;;;;1.00;0.40;;;;;;;;;;5056911;28;20040;-87
2021/05/28 10:53:35;;;;;;;1.10;0.30;;;;;;;;;;5056080;28;20104;-82
2021/05/28 10:56:03;;;;;;;0.90;0.40;;;;;;;;;;5056980;28;20083;-86
2021/05/28 10:58:47;;;;;;;2.72;0.40;;;;;;;;;;5055722;28;20021;-88
2021/05/28 11:01:32;;;;;;;0.60;0.40;;;;;;;;;;5054271;28;20032;-82
2021/05/28 11:04:02;;;;;;;0.55;0.30;;;;;;;;;;5054177;28;20082;-79
2021/05/28 11:06:28;;;;;;;0.80;0.40;;;;;;;;;;5054114;28;20037;-77
2021/05/28 11:09:04;;;;;;;1.23;0.45;;;;;;;;;;5054840;28;20032;-79
2021/05/28 11:11:36;;;;;;;1.13;0.45;;;;;;;;;;5053244;28;20028;-86
2021/05/28 11:14:06;;;;;;;1.48;0.60;;;;;;;;;;5056502;28;20466;-87
2021/05/28 11:16:51;;;;;;;2.05;0.60;;;;;;;;;;5053878;28;20029;-82
2021/05/28 11:19:27;;;;;;;1.75;0.60;;;;;;;;;;5055729;28;20021;-90
2021/05/28 11:21:57;;;;;;;1.48;0.60;;;;;;;;;;5055470;28;20075;-83
2021/05/28 11:24:42;;;;;;;1.92;0.60;;;;;;;;;;5055194;28;20107;-87
2021/05/28 11:27:16;;;;;;;2.08;0.50;;;;;;;;;;5054781;28;20040;-89
2021/05/28 11:29:42;;;;;;;2.10;0.50;;;;;;;;;;5056168;28;20025;-80
2021/05/28 11:32:28;;;;;;;2.15;0.40;;;;;;;;;;5056398;28;20462;-91
2021/05/28 11:35:10;;;;;;;1.55;0.52;;;;;;;;;;5056584;28;20055;-86
2021/05/28 11:37:40;;;;;;;1.50;0.60;;;;;;;;;;5056215;28;20044;-90
2021/05/28 11:40:17;;;;;;;1.52;0.73;;;;;;;;;;5055933;28;20477;-80
2021/05/28 11:42:44;;;;;;;0.80;0.40;;;;;;;;;;5054709;28;20219;-86
2021/05/28 11:45:12;;;;;;;0.88;0.40;;;;;;;;;;5052296;28;20074;-84
2021/05/28 11:47:38;;;;;;;2.40;0.57;;;;;;;;;;5040668;28;20045;-90
2021/05/28 11:50:07;;;;;;;0.98;0.40;;;;;;;;;;5037910;28;20041;-90
2021/05/28 11:52:33;;;;;;;1.10;0.40;;;;;;;;;;5035722;28;20040;-92
2021/05/28 11:55:05;;;;;;;1.67;0.70;;;;;;;;;;5036888;28;20021;-90
2021/05/28 11:57:31;;;;;;;0.93;0.43;;;;;;;;;;5036463;28;20052;-90
2021/05/28 11:59:58;;;;;;;1.00;0.47;;;;;;;;;;5036014;28;20038;-87
2021/05/28 12:02:44;;;;;;;1.30;0.50;;;;;;;;;;5035704;28;20430;-86
2021/05/28 12:05:21;;;;;;;2.30;0.52;;;;;;;;;;5055308;28;20021;-90
2021/05/28 12:07:47;;;;;;;6.13;0.60;;;;;;;;;;5055953;28;20029;-86
2021/05/28 12:10:15;;;;;;;0.80;0.40;;;;;;;;;;5062262;28;20111;-87
2021/05/28 12:12:50;;;;;;;0.88;0.40;;;;;;;;;;5055874;28;20029;-82
2021/05/28 12:15:17;;;;;;;2.60;0.60;;;;;;;;;;5053626;28;20440;-91
2021/05/28 12:17:43;;;;;;;2.42;0.65;;;;;;;;;;5054533;28;20052;-84
2021/05/28 12:20:15;;;;;;;1.25;0.30;;;;;;;;;;5054473;28;20032;-88
2021/05/28 12:23:00;;;;;;;1.08;0.50;;;;;;;;;;5054286;28;20474;-86
2021/05/28 12:25:27;;;;;;;1.08;0.50;;;;;;;;;;5054212;28;20037;-86
2021/05/28 12:27:53;;;;;;;0.73;0.30;;;;;;;;;;5054674;28;20120;-87
2021/05/28 12:30:26;;;;;;;2.22;0.60;;;;;;;;;;5054082;28;20025;-91
2021/05/28 12:32:52;;;;;;;1.88;0.32;;;;;;;;;;5054384;28;20056;-91
2021/05/28 12:35:21;;;;;;;1.73;0.57;;;;;;;;;;5055380;28;20029;-90
2021/05/28 12:38:02;;;;;;;1.67;0.40;;;;;;;;;;5054932;28;20021;-88
2021/05/28 12:40:29;;;;;;;2.22;0.60;;;;;;;;;;5054200;28;20134;-90
2021/05/28 12:42:59;;;;;;;0.90;0.50;;;;;;;;;;5054002;28;20021;-89
2021/05/28 12:45:35;;;;;;;1.10;0.60;;;;;;;;;;5053631;28;20029;-91
2021/05/28 12:48:02;;;;;;;0.98;0.50;;;;;;;;;;5054999;28;20033;-90
2021/05/28 12:50:35;;;;;;;1.13;0.40;;;;;;;;;;5054822;28;20087;-80
2021/05/28 12:53:09;;;;;;;1.23;0.50;;;;;;;;;;5058155;28;20028;-91
2021/05/28 12:55:38;;;;;;;0.95;0.40;;;;;;;;;;5054920;28;20099;-93
2021/05/28 12:58:05;;;;;;;5.32;0.80;;;;;;;;;;5058158;28;20028;-89
2021/05/28 13:00:38;;;;;;;1.00;0.40;;;;;;;;;;5059819;28;20089;-92
2021/05/28 13:03:05;;;;;;;1.80;0.70;;;;;;;;;;5054593;28;20025;-93
2021/05/28 13:05:32;;;;;;;4.75;0.70;;;;;;;;;;5050894;28;20037;-80
2021/05/28 13:07:59;;;;;;;2.72;0.68;;;;;;;;;;5053703;28;20021;-82
2021/05/28 13:10:25;;;;;;;2.15;0.60;;;;;;;;;;5052189;28;20021;-76
2021/05/28 13:13:25;;;;;;;2.10;0.70;;;;;;;;;;5052602;28;20555;-84
2021/05/28 13:15:51;;;;;;;1.42;0.55;;;;;;;;;;5052884;28;20021;-83
2021/05/28 13:18:21;;;;;;;1.63;0.82;;;;;;;;;;5055072;28;20115;-79
2021/05/28 13:20:48;;;;;;;0.90;0.55;;;;;;;;;;5054830;28;20081;-83
2021/05/28 13:23:22;;;;;;;0.93;0.40;;;;;;;;;;5053548;28;20029;-81
2021/05/28 13:25:48;;;;;;;1.65;0.60;;;;;;;;;;5053579;28;20029;-88
2021/05/28 13:28:16;;;;;;;1.30;0.57;;;;;;;;;;5053092;28;20112;-84
2021/05/28 13:30:55;;;;;;;1.48;0.60;;;;;;;;;;5054167;28;20025;-87
2021/05/28 13:33:25;;;;;;;1.10;0.50;;;;;;;;;;5053857;28;20049;-87
2021/05/28 13:35:53;;;;;;;1.20;0.50;;;;;;;;;;5056324;28;20112;-87
2021/05/28 13:38:20;;;;;;;1.20;0.50;;;;;;;;;;5058300;28;20032;-87
2021/05/28 13:40:46;;;;;;;3.00;0.50;;;;;;;;;;5056688;28;20029;-87
2021/05/28 13:43:20;;;;;;;1.10;0.50;;;;;;;;;;5056913;28;20025;-87
2021/05/28 13:45:48;;;;;;;1.60;0.52;;;;;;;;;;5056886;28;20611;-90
2021/05/28 13:48:14;;;;;;;1.90;0.65;;;;;;;;;;5057374;28;20025;-89
2021/05/28 13:50:40;;;;;;;1.38;0.60;;;;;;;;;;5056865;28;20045;-87
2021/05/28 13:53:07;;;;;;;1.63;0.70;;;;;;;;;;5056549;28;20025;-87
2021/05/28 13:55:36;;;;;;;2.53;0.52;;;;;;;;;;5057793;28;20045;-86
2021/05/28 13:58:03;;;;;;;4.40;0.43;;;;;;;;;;5057561;28;20017;-81
2021/05/28 14:00:29;;;;;;;7.43;0.98;;;;;;;;;;5058139;28;20534;-93
2021/05/28 14:02:56;;;;;;;1.30;0.52;;;;;;;;;;5061585;28;20055;-82
2021/05/28 14:05:22;;;;;;;0.88;0.43;;;;;;;;;;5059560;28;20401;-88
2021/05/28 14:07:49;;;;;;;0.85;0.32;;;;;;;;;;5061347;28;20029;-81
2021/05/28 14:10:16;;;;;;;1.40;0.60;;;;;;;;;;5063775;28;20480;-80
2021/05/28 14:12:43;;;;;;;0.88;0.32;;;;;;;;;;5063274;28;20021;-80
2021/05/28 14:15:10;;;;;;;1.13;0.50;;;;;;;;;;5058168;28;20036;-81
2021/05/28 14:17:37;;;;;;;1.30;0.55;;;;;;;;;;5055498;28;20031;-80
2021/05/28 14:20:04;;;;;;;1.25;0.50;;;;;;;;;;5055904;28;20032;-81
2021/05/28 14:22:30;;;;;;;1.02;0.40;;;;;;;;;;5055453;28;20033;-80
2021/05/28 14:24:56;;;;;;;1.67;0.77;;;;;;;;;;5055890;28;20087;-80
2021/05/28 14:27:23;;;;;;;1.38;0.60;;;;;;;;;;5055861;28;20035;-80
2021/05/28 14:29:49;;;;;;;1.63;0.55;;;;;;;;;;5055808;28;20029;-80
2021/05/28 14:32:16;;;;;;;0.82;0.50;;;;;;;;;;5056016;28;20493;-95
2021/05/28 14:34:42;;;;;;;1.35;0.60;;;;;;;;;;5056124;28;20021;-81
2021/05/28 14:37:08;;;;;;;2.78;0.60;;;;;;;;;;5055761;28;20025;-86
2021/05/28 14:39:35;;;;;;;1.60;0.60;;;;;;;;;;5055632;28;20017;-82
2021/05/28 14:42:01;;;;;;;1.52;0.40;;;;;;;;;;5056965;28;20033;-80
2021/05/28 14:44:27;;;;;;;0.90;0.40;;;;;;;;;;5056687;28;20075;-81
2021/05/28 14:46:54;;;;;;;1.10;0.50;;;;;;;;;;5055063;28;20493;-81
2021/05/28 14:49:20;;;;;;;0.80;0.40;;;;;;;;;;5055624;28;20053;-83